Wolston, United Kingdom
Current Conditions -  °F | °C
As of 2:20 AM on Tuesday 27 Jan 2015 (Local Time) from EGBE Reporting Station
Few Clouds Few Clouds  
Wind Chill: 33°   Ceiling: Unl
Heat Index: 37°   Visibility: 6mi
Dew Point: 34°   Wind: 6mph
Humidity: 87%   Direction: 240°WSW
Pressure: 30.36"   Gusts: NA
Location:  52.38°N, 1.4°W
Report Text: EGBE 270220Z 24005KT 9999 FEW030 03/01 Q1028
Loading
Personal Weather Stations






























Interactive Weather Map New forecast layout! Learn more

10-Day Weather Forecast

Advertisements
Track Severe Weather on mobile